This is the latest recevied weather packets stored in our database for station/object JO1YDG-13. If no packets are shown the sender has not sent any weather packets the latest 1 day(s).
| Time | Temp. | Humidity | Pressure | Rain* | Wind** | Luminosity | Snow |
|---|---|---|---|---|---|---|---|
| 1778033585 | 17.22° C | 54% | 993.9 hPa | 0 mm | - | - | - |
| 1778032684 | 16.11° C | 58% | 994.2 hPa | 0 mm | - | - | - |
| 1778032384 | 16.11° C | 58% | 994.2 hPa | 0 mm | - | - | - |
| 1778032084 | 16.11° C | 58% | 994.3 hPa | 0 mm | - | - | - |
| 1778030883 | 15.56° C | 60% | 994.5 hPa | 0 mm | - | - | - |
| 1778030283 | 14.44° C | 62% | 994.7 hPa | 0 mm | - | - | - |
| 1778029984 | 14.44° C | 63% | 994.9 hPa | 0 mm | - | - | - |
| 1778029385 | 14.44° C | 62% | 994.9 hPa | 0 mm | - | - | - |
| 1778029084 | 15° C | 62% | 995 hPa | 0 mm | - | - | - |
| 1778028784 | 15° C | 63% | 995 hPa | 0 mm | - | - | - |
| 1778028484 | 14.44° C | 63% | 995.1 hPa | 0 mm | - | - | - |
| 1778028184 | 14.44° C | 64% | 995.1 hPa | 0 mm | - | - | - |
| 1778026985 | 13.89° C | 67% | 995.3 hPa | 0 mm | - | - | - |
| 1778025184 | 13.33° C | 69% | 995.4 hPa | 0 mm | - | - | - |
| 1778023984 | 13.33° C | 69% | 995.7 hPa | 0 mm | - | - | - |
| 1778023685 | 13.33° C | 70% | 995.7 hPa | 0 mm | - | - | - |
| 1778022184 | 13.33° C | 70% | 995.6 hPa | 0 mm | - | - | - |
| 1778021884 | 13.33° C | 70% | 995.6 hPa | 0 mm | - | - | - |
| 1778019185 | 12.78° C | 74% | 995.4 hPa | 0 mm | - | - | - |
| 1778018885 | 12.78° C | 73% | 995.4 hPa | 0 mm | - | - | - |
| 1778016784 | 12.22° C | 71% | 995.6 hPa | 0 mm | - | - | - |
| 1778015884 | 11.67° C | 75% | 995.5 hPa | 0 mm | - | - | - |
| 1778015285 | 11.11° C | 77% | 995.6 hPa | 0 mm | - | - | - |
* Rain latest hour (hover to see other rain measurements)
** Current wind speed in m/s (hover to see current wind gust speed)